ADDS METAR Data INFO
IDs: Format: Raw Decoded Include TAF

Data at: 2159 UTC 24 Feb 2018

PASM 242156Z AUTO 34013KT 9SM -SN CLR M09/M12 A2988 RMK AO2 SNE20B46 SLP137 P0000 T10941117 FZRANO
PASM 242141Z AUTO 34012KT 10SM SCT009 M11/M12 A2987 RMK AO2 SNE20 P0000 FZRANO
PASM 242056Z AUTO 34011KT 9SM -SN BKN009 M10/M12 A2985 RMK AO2 SNE06B24 SLP128 P0000 60000 T11001117 51045 FZRANO
PASM 242044Z AUTO 33010KT 9SM BKN009 M09/M12 A2985 RMK AO2 SNE06B24E41 P0000 FZRANO
PASM 241956Z AUTO 33009KT 9SM -SN CLR M11/M12 A2982 RMK AO2 SNB38 SLP116 P0000 T11111122 FZRANO
PASM 241856Z AUTO 33010KT 10SM CLR M11/M13 A2977 RMK AO2 SNE14 SLP100 P0000 T11111128 FZRANO
PASM 241756Z AUTO 34011KT 9SM -SN FEW028 SCT080 M10/M11 A2972 RMK AO2 SLP082 P0000 60000 T11001111 11078 21100 53025 FZRANO
PASM 241721Z AUTO 33008KT 7SM -SN FEW010 SCT017 M09/M11 A2969 RMK AO2 P0000 FZRANO
PASM 241713Z AUTO 33008KT 3SM -SN BR SCT010 BKN015 BKN021 M09/M10 A2969 RMK AO2 P0000 FZRANO
PASM 241702Z AUTO 33010KT 1 3/4SM -SN BR FEW010 BKN024 OVC070 M09/M10 A2968 RMK AO2 P0000 FZRANO
PASM 241656Z AUTO 33008KT 2 1/2SM -SN BR SCT016 OVC070 M09/M10 A2968 RMK AO2 VIS 1 1/2V5 SLP068 P0000 T10891100 FZRANO
PASM 241614Z AUTO 35008KT 4SM -SN BR FEW014 BKN020 OVC039 M08/M09 A2965 RMK AO2 P0000 FZRANO
PASM 241556Z AUTO 35008KT 4SM -SN BR FEW014 BKN033 M08/M09 A2965 RMK AO2 SLP057 P0000 T10831094 FZRANO
PASM 241540Z AUTO 36007KT 9SM -SN SCT020 SCT031 M08/M09 A2964 RMK AO2 P0000 FZRANO
PASM 241456Z AUTO 36006KT 6SM -SN BR OVC022 M08/M09 A2962 RMK AO2 SLP047 P0000 60000 T10831094 53017 FZRANO
PASM 241356Z AUTO 01005KT 3SM -SN BR FEW016 BKN029 M08/M09 A2960 RMK AO2 SLP040 P0000 T10831089 FZRANO
PASM 241313Z AUTO 02004KT 9SM -SN BKN029 M08/M09 A2958 RMK AO2 P0000 FZRANO
PASM 241256Z AUTO 04005KT 8SM -SN CLR M08/M09 A2958 RMK AO2 SLP033 P0000 T10831094 FZRANO
PASM 241232Z AUTO 05007KT 6SM -SN BR SCT020 M08/M09 A2958 RMK AO2 P0000 FZRANO
PASM 241209Z AUTO 04005KT 3SM -SN BR FEW015 OVC022 M08/M09 A2957 RMK AO2 P0000 FZRANO
PASM 241156Z AUTO 04005KT 2 1/2SM -SN BR BKN017 OVC022 M08/M09 A2957 RMK AO2 SLP028 P0000 60000 T10781089 11067 21078 51018 FZRANO
PASM 241149Z AUTO 03006KT 2SM -SN BR BKN016 OVC022 M08/M09 A2956 RMK AO2 P0000 FZRANO
PASM 241141Z AUTO 04006KT 2 1/2SM -SN BR BKN014 OVC023 M08/M09 A2957 RMK AO2 P0000 FZRANO
PASM 241056Z AUTO 04006KT 4SM -SN BR FEW010 OVC020 M08/M09 A2955 RMK AO2 SLP024 P0000 T10781089 FZRANO
PASM 241042Z AUTO 02004KT 3SM -SN BR OVC020 M07/M09 A2955 RMK AO2 P0000 FZRANO
PASM 241024Z AUTO 06009KT 2 1/2SM -SN BR OVC022 M07/M09 A2954 RMK AO2 P0000 FZRANO
PASM 240956Z AUTO 07013KT 4SM -SN BR OVC025 M08/M09 A2953 RMK AO2 SLP016 P0000 T10781089 FZRANO
PASM 240934Z AUTO 08014G20KT 4SM -SN BR FEW018 OVC025 M07/M09 A2952 RMK AO2 P0000 FZRANO
PASM 240911Z AUTO 07016G21KT 2 1/2SM -SN BR FEW012 BKN019 OVC025 M07/M09 A2951 RMK AO2 P0000 FZRANO
PASM 240856Z AUTO 07016G21KT 4SM -SN BR OVC019 M07/M09 A2951 RMK AO2 SLP010 P0000 60000 T10721089 55011 FZRANO
PASM 240841Z AUTO 07017KT 2 1/2SM -SN BR BKN021 BKN028 M07/M09 A2951 RMK AO2 P0000 FZRANO
PASM 240830Z AUTO 07016KT 2 1/2SM -SN BR SCT026 M07/M08 A2951 RMK AO2 P0000 FZRANO
PASM 240818Z AUTO 07017KT 3SM -SN BR SCT023 M07/M08 A2951 RMK AO2 P0000 FZRANO
PASM 240756Z AUTO 08017G24KT 2 1/2SM -SN BR OVC019 M07/M08 A2951 RMK AO2 SLP009 P0000 T10721083 410501072 FZRANO
PASM 240744Z AUTO 08019G25KT 2SM -SN BR SCT011 OVC019 M07/M08 A2950 RMK AO2 P0000 FZRANO
PASM 240707Z AUTO 09019G25KT 2 1/2SM -SN BR BKN013 OVC021 M07/M08 A2951 RMK AO2 P0000 FZRANO
PASM 240656Z AUTO 09020G25KT 5SM -SN BR BKN019 M07/M08 A2952 RMK AO2 PK WND 09027/0636 SLP013 P0000 T10721083 FZRANO
PASM 240633Z AUTO 09018G25KT 5SM -SN BR BKN019 OVC110 M07/M08 A2953 RMK AO2 PK WND 08027/0612 P0000 FZRANO
PASM 240621Z AUTO 08021G27KT 3SM -SN BR FEW019 BKN120 M07/M08 A2953 RMK AO2 PK WND 08027/0612 P0000 FZRANO
PASM 240607Z AUTO 09019G26KT 2 1/2SM -SN BR FEW018 BKN110 M07/M08 A2954 RMK AO2 PK WND 08026/0558 P0000 FZRANO
PASM 240556Z AUTO 09022G30KT 3SM -SN BR FEW018 BKN120 M07/M08 A2954 RMK AO2 PK WND 10030/0555 PRESFR SLP021 P0000 60000 T10671078 11061 21072 56044 FZRANO
PASM 240510Z AUTO 08021G26KT 2 1/2SM -SN BR FEW022 BKN120 M07/M08 A2958 RMK AO2 PK WND 09026/0503 P0000 FZRANO
PASM 240501Z AUTO 08019G28KT 1 3/4SM -SN BR FEW017 SCT022 BKN110 M07/M08 A2959 RMK AO2 P0000 FZRANO
PASM 240456Z AUTO 08022G28KT 2SM -SN BR FEW017 BKN029 OVC110 M07/M08 A2959 RMK AO2 PK WND 08029/0400 SLP036 P0000 T10671078 FZRANO
PASM 240436Z AUTO 08021G27KT 5SM -SN BR BKN025 BKN031 BKN110 M07/M08 A2960 RMK AO2 PK WND 08029/0400 P0000 FZRANO
PASM 240424Z AUTO 09019G27KT 2SM -SN BR FEW016 BKN025 BKN110 M07/M08 A2961 RMK AO2 PK WND 08029/0400 VIS 1 1/2V3 P0000 FZRANO
PASM 240410Z AUTO 08022G27KT 1 1/2SM -SN BR SCT018 BKN110 M07/M08 A2961 RMK AO2 PK WND 08029/0400 P0000 FZRANO
PASM 240351Z AUTO 09021G30KT 2SM -SN BR FEW011 BKN020 BKN110 M07/M08 A2963 RMK AO2 PK WND 08030/0347 VIS 1 1/2V3 SLP049 P0000 T10671083 FZRANO
PASM 240350Z AUTO 08021G30KT 2SM -SN BR FEW011 BKN020 BKN110 M07/M08 A2963 RMK AO2 PK WND 08030/0347 VIS 1 1/4V3 P0000 FZRANO
PASM 240343Z AUTO 08022G28KT 1SM -SN BR SCT011 SCT020 BKN110 M07/M08 A2963 RMK AO2 PK WND 08029/0314 P0000 FZRANO
PASM 240334Z AUTO 08021G28KT 1/2SM -SN FZFG BKN011 BKN110 M07/M08 A2964 RMK AO2 PK WND 08029/0314 P0000 FZRANO
PASM 240324Z AUTO 08022G27KT 3/4SM -SN BR SCT011 BKN100 M07/M08 A2965 RMK AO2 PK WND 08029/0314 P0000 FZRANO
PASM 240304Z AUTO 08020G27KT 1/2SM -SN FZFG FEW020 BKN100 M07/M08 A2967 RMK AO2 PK WND 08027/0302 PRESFR P0000 FZRANO
PASM 240256Z AUTO 08022G27KT 3/4SM -SN BR FEW015 BKN110 M07/M08 A2968 RMK AO2 PK WND 08027/0256 PRESFR SLP066 P0000 60000 T10721083 58074 FZRANO
PASM 240246Z AUTO 08022G26KT 1 1/2SM -SN BR FEW017 SCT022 BKN110 M07/M08 A2969 RMK AO2 PK WND 07027/0233 P0000 FZRANO
PASM 240228Z AUTO 08020G26KT 1SM -SN BR SCT018 BKN110 M07/M08 A2972 RMK AO2 PK WND 08026/0228 P0000 FZRANO
PASM 240223Z AUTO 08018G23KT 1 1/4SM -SN BR SCT018 BKN023 BKN110 M07/M09 A2972 RMK AO2 PRESFR P0000 FZRANO
PASM 240215Z AUTO 08017G22KT 2SM -SN BR BKN020 BKN025 M07/M09 A2973 RMK AO2 PRESFR P0000 FZRANO
PASM 240156Z AUTO 08018G21KT 7SM -SN SCT018 BKN023 M06/M08 A2976 RMK AO2 PRESFR SLP093 P0000 T10611083 FZRANO
PASM 240146Z AUTO 08015G20KT 3SM -SN BR BKN018 M06/M08 A2977 RMK AO2 PRESFR P0000 FZRANO
PASM 240130Z AUTO 07017G21KT 1 3/4SM -SN BR SCT018 BKN026 BKN031 M06/M08 A2978 RMK AO2 VIS 1V5 PRESFR P0000 FZRANO
PASM 240056Z AUTO 08015KT 8SM -SN FEW020 BKN027 OVC044 M06/M08 A2983 RMK AO2 SNB45 SLP117 P0000 T10611083 FZRANO
PASM 232356Z AUTO 09011KT 10SM FEW022 BKN065 M06/M09 A2990 RMK AO2 SLP142 T10611089 11061 21072 56054 FZRANO
PASM 232333Z AUTO 08013KT 10SM FEW016 M07/M09 A2991 RMK AO2 FZRANO
PASM 232256Z AUTO 08011KT 10SM OVC016 M06/M09 A2995 RMK AO2 SLP159 T10611089 FZRANO
PASM 232156Z AUTO 09013KT 10SM BKN016 BKN070 M07/M09 A3000 RMK AO2 SLP176 T10671094 FZRANO
PASM 232056Z AUTO 08011KT 10SM BKN021 M07/M09 A3006 RMK AO2 SLP195 T10721094 58051 FZRANO
PASM 231956Z AUTO 09012KT 10SM OVC021 M07/M09 A3011 RMK AO2 SLP214 T10721094 FZRANO
PASM 231918Z AUTO 09015KT 10SM BKN021 M07/M09 A3014 RMK AO2 FZRANO
PASM 231905Z AUTO 09012KT 10SM SCT019 M07/M09 A3015 RMK AO2 FZRANO
PASM 231856Z AUTO 09011KT 10SM BKN019 M07/M09 A3016 RMK AO2 SLP231 T10721094 FZRANO
PASM 231756Z AUTO 09006KT 10SM OVC021 M07/M09 A3021 RMK AO2 SLP247 60000 T10721089 11056 21072 56034 FZRANO
PASM 231656Z AUTO 11007KT 10SM OVC021 M07/M09 A3023 RMK AO2 SNE10 SLP256 P0000 T10721089 FZRANO
PASM 231556Z AUTO 05004KT 9SM -SN OVC021 M07/M09 A3027 RMK AO2 SNB01E10B47 SLP269 P0000 T10671094 FZRANO
PASM 231456Z AUTO 08003KT 10SM OVC021 M07/M09 A3031 RMK AO2 SNB10E21 SLP283 P0000 60000 T10671089 56027 FZRANO
PASM 231356Z AUTO 35008KT 10SM OVC021 M06/M08 A3033 RMK AO2 SNE36 SLP291 P0000 T10611083 FZRANO
PASM 231256Z AUTO 31003KT 9SM -SN OVC021 M06/M08 A3036 RMK AO2 SLP301 P0000 T10611078 FZRANO
PASM 231156Z AUTO 29008KT 9SM -SN OVC020 M06/M08 A3039 RMK AO2 SLP311 P0000 60000 T10561078 11050 21061 55001 FZRANO
PASM 231056Z AUTO 28011KT 9SM -SN OVC022 M06/M08 A3039 RMK AO2 SLP310 P0000 T10561083 FZRANO